createdAt,value
2018-05-13T00:00:49.698Z,0.00
2018-05-13T00:01:49.628Z,0.00
2018-05-13T00:02:49.556Z,0.00
2018-05-13T00:03:49.485Z,0.00
2018-05-13T00:04:49.416Z,0.00
2018-05-13T00:05:49.344Z,0.00
2018-05-13T00:06:49.276Z,0.00
2018-05-13T00:07:49.202Z,0.00
2018-05-13T00:08:49.138Z,0.00
2018-05-13T00:09:49.061Z,0.00
2018-05-13T00:10:48.993Z,0.00
2018-05-13T00:11:48.920Z,0.00
2018-05-13T00:12:48.847Z,0.00
2018-05-13T00:13:48.776Z,0.00
2018-05-13T00:14:48.707Z,0.00
2018-05-13T00:15:48.635Z,0.00
2018-05-13T00:16:48.564Z,0.00
2018-05-13T00:17:48.493Z,0.00
2018-05-13T00:18:48.428Z,0.00
2018-05-13T00:19:48.354Z,0.00
2018-05-13T00:20:48.282Z,0.00
2018-05-13T00:21:48.211Z,0.00
2018-05-13T00:22:48.169Z,0.00
2018-05-13T00:23:48.069Z,0.00
2018-05-13T00:24:48.000Z,0.00
2018-05-13T00:25:47.927Z,0.00
2018-05-13T00:26:47.856Z,0.00
2018-05-13T00:27:47.786Z,0.00
2018-05-13T00:28:47.715Z,0.00
2018-05-13T00:29:47.644Z,0.00
2018-05-13T00:30:47.572Z,0.00
2018-05-13T00:31:47.502Z,0.00
2018-05-13T00:32:47.431Z,0.00
2018-05-13T00:33:47.361Z,0.00
2018-05-13T00:34:47.289Z,0.00
2018-05-13T00:35:47.219Z,0.00
2018-05-13T00:36:47.149Z,0.00
2018-05-13T00:37:47.077Z,0.00
2018-05-13T00:38:47.011Z,0.00
2018-05-13T00:39:46.936Z,0.00
2018-05-13T00:40:46.865Z,0.00
2018-05-13T00:41:46.794Z,0.00
2018-05-13T00:42:46.723Z,0.00
2018-05-13T00:43:46.654Z,0.00
2018-05-13T00:44:46.579Z,0.00
2018-05-13T00:45:46.509Z,0.00
2018-05-13T00:46:46.438Z,0.00
2018-05-13T00:47:46.368Z,0.00
2018-05-13T00:48:46.297Z,0.00
2018-05-13T00:49:46.225Z,0.00
2018-05-13T00:50:46.267Z,0.00
2018-05-13T00:51:46.083Z,0.00
2018-05-13T00:52:46.012Z,0.00
2018-05-13T00:53:45.941Z,0.00
2018-05-13T00:54:45.871Z,0.00
2018-05-13T00:55:45.798Z,0.00
2018-05-13T00:56:45.726Z,0.00
2018-05-13T00:57:45.655Z,0.00
2018-05-13T00:58:45.584Z,0.00
2018-05-13T00:59:45.513Z,0.00
2018-05-13T01:00:45.440Z,0.00
2018-05-13T01:01:45.368Z,0.00
2018-05-13T01:02:45.311Z,0.00
2018-05-13T01:03:45.225Z,0.00
2018-05-13T01:04:45.153Z,0.00
2018-05-13T01:05:45.083Z,0.00
2018-05-13T01:06:45.012Z,0.00
2018-05-13T01:07:44.940Z,0.00
2018-05-13T01:08:44.871Z,0.00
2018-05-13T01:09:44.794Z,0.00
2018-05-13T01:10:44.725Z,0.00
2018-05-13T01:11:44.652Z,0.00
2018-05-13T01:12:44.580Z,0.00
2018-05-13T01:13:44.509Z,0.00
2018-05-13T01:14:44.438Z,0.00
2018-05-13T01:15:44.364Z,0.00
2018-05-13T01:16:44.298Z,0.00
2018-05-13T01:17:44.222Z,0.00
2018-05-13T01:18:44.150Z,0.00
2018-05-13T01:19:44.077Z,0.00
2018-05-13T01:20:44.004Z,0.00
2018-05-13T01:21:43.931Z,0.00
2018-05-13T01:22:43.860Z,0.00
2018-05-13T01:23:43.789Z,0.00
2018-05-13T01:24:43.723Z,0.00
2018-05-13T01:25:43.653Z,0.00
2018-05-13T01:26:43.573Z,0.00
2018-05-13T01:27:43.500Z,0.00
2018-05-13T01:28:43.428Z,0.00
2018-05-13T01:29:43.356Z,0.00
2018-05-13T01:30:43.285Z,0.00
2018-05-13T01:31:43.213Z,0.00
2018-05-13T01:32:43.139Z,0.00
2018-05-13T01:33:43.068Z,0.00
2018-05-13T01:34:42.996Z,0.00
2018-05-13T01:35:42.924Z,0.00
2018-05-13T01:36:42.851Z,0.00
2018-05-13T01:37:42.781Z,0.00
2018-05-13T01:38:42.707Z,0.00
2018-05-13T01:39:42.635Z,0.00
2018-05-13T01:40:42.562Z,0.00
2018-05-13T01:41:42.492Z,0.00
2018-05-13T01:42:42.420Z,0.00
2018-05-13T01:43:42.347Z,0.00
2018-05-13T01:44:42.273Z,0.00
2018-05-13T01:45:42.200Z,0.00
2018-05-13T01:46:42.128Z,0.00
2018-05-13T01:47:42.056Z,0.00
2018-05-13T01:48:41.983Z,0.00
2018-05-13T01:49:41.919Z,0.00
2018-05-13T01:50:41.840Z,0.00
2018-05-13T01:51:41.768Z,0.00
2018-05-13T01:52:41.693Z,0.00
2018-05-13T01:53:41.620Z,0.00
2018-05-13T01:54:41.550Z,0.00
2018-05-13T01:55:41.477Z,0.00
2018-05-13T01:56:41.405Z,0.00
2018-05-13T01:57:41.332Z,0.00
2018-05-13T01:58:41.260Z,0.00
2018-05-13T01:59:41.187Z,0.00
2018-05-13T02:00:41.114Z,0.00
2018-05-13T02:01:41.042Z,0.00
2018-05-13T02:02:40.968Z,0.00
2018-05-13T02:03:40.897Z,0.00
2018-05-13T02:04:40.823Z,0.00
2018-05-13T02:05:40.760Z,0.00
2018-05-13T02:06:40.678Z,0.00
2018-05-13T02:07:40.605Z,0.00
2018-05-13T02:08:40.531Z,0.00
2018-05-13T02:09:40.462Z,0.00
2018-05-13T02:10:40.387Z,0.00
2018-05-13T02:11:40.315Z,0.00
2018-05-13T02:12:40.241Z,0.00
2018-05-13T02:13:40.169Z,0.00
2018-05-13T02:14:40.096Z,0.00
2018-05-13T02:15:40.024Z,0.00
2018-05-13T02:16:39.950Z,0.00
2018-05-13T02:17:39.878Z,0.00
2018-05-13T02:18:39.809Z,0.00
2018-05-13T02:19:39.733Z,0.00
2018-05-13T02:20:39.659Z,0.00
2018-05-13T02:21:39.587Z,0.00
2018-05-13T02:22:39.513Z,0.00
2018-05-13T02:23:39.442Z,0.00
2018-05-13T02:24:39.369Z,0.00
2018-05-13T02:25:39.295Z,0.00
2018-05-13T02:26:39.224Z,0.00
2018-05-13T02:27:39.150Z,0.00
2018-05-13T02:28:39.077Z,0.00
2018-05-13T02:29:39.003Z,0.00
2018-05-13T02:30:38.933Z,0.00
2018-05-13T02:31:38.858Z,0.00
2018-05-13T02:32:38.783Z,0.00
2018-05-13T02:33:38.712Z,0.00
2018-05-13T02:34:38.639Z,0.00
2018-05-13T02:35:38.567Z,0.00
2018-05-13T02:36:38.493Z,0.00
2018-05-13T02:37:38.420Z,0.00
2018-05-13T02:38:38.347Z,0.00
2018-05-13T02:39:38.277Z,0.00
2018-05-13T02:40:38.201Z,0.00
2018-05-13T02:41:38.128Z,0.00
2018-05-13T02:42:38.056Z,0.00
2018-05-13T02:43:37.985Z,0.00
2018-05-13T02:44:37.909Z,0.00
2018-05-13T02:45:37.844Z,0.00
2018-05-13T02:46:37.764Z,0.00
2018-05-13T02:47:37.692Z,0.00
2018-05-13T02:48:37.617Z,0.00
2018-05-13T02:49:37.544Z,0.00
2018-05-13T02:50:37.486Z,0.00
2018-05-13T02:51:37.400Z,0.00
2018-05-13T02:52:37.324Z,0.00
2018-05-13T02:53:37.251Z,0.00
2018-05-13T02:54:37.180Z,0.00
2018-05-13T02:55:37.106Z,0.00
2018-05-13T02:56:37.032Z,0.00
2018-05-13T02:57:36.961Z,0.00
2018-05-13T02:58:36.892Z,0.00
2018-05-13T02:59:36.816Z,0.00
2018-05-13T03:00:36.746Z,0.00
2018-05-13T03:01:36.670Z,0.00
2018-05-13T03:02:36.596Z,0.00
2018-05-13T03:03:36.527Z,0.00
2018-05-13T03:04:36.453Z,0.00
2018-05-13T03:05:36.379Z,0.00
2018-05-13T03:06:36.312Z,0.00
2018-05-13T03:07:36.234Z,0.00
2018-05-13T03:08:36.160Z,0.00
2018-05-13T03:09:36.086Z,0.00
2018-05-13T03:10:36.019Z,0.00
2018-05-13T03:11:35.943Z,0.00
2018-05-13T03:12:35.874Z,0.00
2018-05-13T03:13:35.797Z,0.00
2018-05-13T03:14:35.726Z,0.00
2018-05-13T03:15:35.652Z,4.00
2018-05-13T03:16:35.579Z,4.00
2018-05-13T03:17:35.507Z,0.00
2018-05-13T03:18:35.435Z,0.00
2018-05-13T03:19:35.362Z,4.00
2018-05-13T03:20:35.289Z,4.00
2018-05-13T03:21:35.217Z,0.00
2018-05-13T03:22:35.146Z,4.00
2018-05-13T03:23:35.074Z,4.00
2018-05-13T03:24:35.000Z,4.00
2018-05-13T03:25:34.926Z,8.00
2018-05-13T03:26:34.856Z,8.00
2018-05-13T03:27:34.784Z,8.00
2018-05-13T03:28:34.710Z,12.00
2018-05-13T03:29:34.639Z,16.00
2018-05-13T03:30:34.567Z,16.00
2018-05-13T03:31:34.495Z,20.00
2018-05-13T03:32:34.423Z,20.00
2018-05-13T03:33:34.349Z,24.00
2018-05-13T03:34:34.281Z,24.00
2018-05-13T03:35:34.207Z,28.00
2018-05-13T03:36:34.133Z,32.00
2018-05-13T03:37:34.060Z,32.00
2018-05-13T03:38:33.994Z,40.00
2018-05-13T03:39:33.918Z,44.00
2018-05-13T03:40:33.845Z,48.00
2018-05-13T03:41:33.772Z,52.00
2018-05-13T03:42:33.700Z,60.00
2018-05-13T03:43:33.627Z,60.00
2018-05-13T03:44:33.554Z,68.00
2018-05-13T03:45:33.484Z,76.00
2018-05-13T03:46:33.421Z,76.00
2018-05-13T03:47:33.339Z,88.00
2018-05-13T03:48:33.266Z,92.00
2018-05-13T03:49:33.193Z,100.00
2018-05-13T03:50:33.121Z,108.00
2018-05-13T03:51:33.049Z,112.00
2018-05-13T03:52:32.976Z,120.00
2018-05-13T03:53:32.908Z,128.00
2018-05-13T03:54:32.831Z,132.00
2018-05-13T03:55:32.763Z,136.00
2018-05-13T03:56:32.790Z,140.00
2018-05-13T03:57:32.616Z,148.00
2018-05-13T03:58:32.541Z,156.00
2018-05-13T03:59:32.470Z,168.00
2018-05-13T04:00:32.398Z,184.00
2018-05-13T04:01:32.332Z,188.00
2018-05-13T04:02:32.251Z,204.00
2018-05-13T04:03:32.181Z,220.00
2018-05-13T04:04:32.106Z,236.00
2018-05-13T04:05:32.033Z,248.00
2018-05-13T04:06:31.961Z,264.00
2018-05-13T04:07:31.892Z,280.00
2018-05-13T04:08:31.905Z,300.00
2018-05-13T04:09:31.742Z,320.00
2018-05-13T04:10:31.672Z,344.00
2018-05-13T04:11:31.597Z,364.00
2018-05-13T04:12:31.525Z,384.00
2018-05-13T04:13:31.452Z,404.00
2018-05-13T04:14:31.380Z,416.00
2018-05-13T04:15:31.309Z,412.00
2018-05-13T04:16:31.234Z,392.00
2018-05-13T04:17:31.162Z,384.00
2018-05-13T04:18:31.090Z,392.00
2018-05-13T04:19:31.018Z,408.00
2018-05-13T04:20:30.948Z,424.00
2018-05-13T04:21:30.872Z,456.00
2018-05-13T04:22:30.801Z,500.00
2018-05-13T04:23:30.727Z,560.00
2018-05-13T04:24:30.656Z,632.00
2018-05-13T04:25:30.581Z,696.00
2018-05-13T04:26:30.512Z,732.00
2018-05-13T04:27:30.589Z,764.00
2018-05-13T04:28:30.365Z,788.00
2018-05-13T04:29:30.292Z,800.00
2018-05-13T04:30:30.221Z,816.00
2018-05-13T04:31:30.150Z,808.00
2018-05-13T04:32:30.074Z,792.00
2018-05-13T04:33:30.003Z,780.00
2018-05-13T04:34:29.931Z,776.00
2018-05-13T04:35:29.858Z,768.00
2018-05-13T04:36:29.784Z,772.00
2018-05-13T04:37:29.712Z,776.00
2018-05-13T04:38:29.640Z,780.00
2018-05-13T04:39:29.569Z,788.00
2018-05-13T04:40:29.495Z,776.00
2018-05-13T04:41:29.423Z,768.00
2018-05-13T04:42:29.351Z,768.00
2018-05-13T04:43:29.280Z,784.00
2018-05-13T04:44:29.205Z,828.00
2018-05-13T04:45:29.134Z,880.00
2018-05-13T04:46:29.063Z,916.00
2018-05-13T04:47:28.991Z,956.00
2018-05-13T04:48:28.918Z,992.00
2018-05-13T04:49:28.847Z,1028.00
2018-05-13T04:50:28.774Z,1048.00
2018-05-13T04:51:28.703Z,1060.00
2018-05-13T04:52:28.628Z,1064.00
2018-05-13T04:53:28.556Z,1084.00
2018-05-13T04:54:28.483Z,1092.00
2018-05-13T04:55:28.412Z,1096.00
2018-05-13T04:56:28.340Z,1116.00
2018-05-13T04:57:28.267Z,1156.00
2018-05-13T04:58:28.194Z,1204.00
2018-05-13T04:59:28.126Z,1260.00
2018-05-13T05:00:28.051Z,1300.00
2018-05-13T05:01:27.981Z,1328.00
2018-05-13T05:02:27.908Z,1356.00
2018-05-13T05:03:27.838Z,1388.00
2018-05-13T05:04:27.762Z,1420.00
2018-05-13T05:05:27.692Z,1436.00
2018-05-13T05:06:27.620Z,1424.00
2018-05-13T05:07:27.549Z,1436.00
2018-05-13T05:08:27.477Z,1468.00
2018-05-13T05:09:27.405Z,1512.00
2018-05-13T05:10:27.333Z,1556.00
2018-05-13T05:11:27.262Z,1584.00
2018-05-13T05:12:27.192Z,1592.00
2018-05-13T05:13:27.118Z,1572.00
2018-05-13T05:14:27.045Z,1564.00
2018-05-13T05:15:26.975Z,1552.00
2018-05-13T05:16:26.904Z,1556.00
2018-05-13T05:17:26.832Z,1564.00
2018-05-13T05:18:26.760Z,1592.00
2018-05-13T05:19:26.688Z,1624.00
2018-05-13T05:20:26.615Z,1708.00
2018-05-13T05:21:26.552Z,1788.00
2018-05-13T05:22:26.474Z,1840.00
2018-05-13T05:23:26.405Z,1892.00
2018-05-13T05:24:26.329Z,1904.00
2018-05-13T05:25:26.259Z,1968.00
2018-05-13T05:26:26.187Z,2008.00
2018-05-13T05:27:26.117Z,2020.00
2018-05-13T05:28:26.044Z,2032.00
2018-05-13T05:29:25.977Z,2036.00
2018-05-13T05:30:25.901Z,2048.00
2018-05-13T05:31:25.832Z,2056.00
2018-05-13T05:32:25.760Z,2088.00
2018-05-13T05:33:25.688Z,2136.00
2018-05-13T05:34:25.651Z,2180.00
2018-05-13T05:35:25.545Z,2220.00
2018-05-13T05:36:25.474Z,2276.00
2018-05-13T05:37:25.404Z,2300.00
2018-05-13T05:38:25.334Z,2352.00
2018-05-13T05:39:25.262Z,2448.00
2018-05-13T05:40:25.192Z,2460.00
2018-05-13T05:41:25.119Z,2528.00
2018-05-13T05:42:25.049Z,2548.00
2018-05-13T05:43:24.978Z,2632.00
2018-05-13T05:44:24.907Z,2680.00
2018-05-13T05:45:24.837Z,2764.00
2018-05-13T05:46:24.766Z,2752.00
2018-05-13T05:47:24.700Z,2796.00
2018-05-13T05:48:24.660Z,2876.00
2018-05-13T05:49:24.553Z,2916.00
2018-05-13T05:50:24.483Z,2992.00
2018-05-13T05:51:24.417Z,3064.00
2018-05-13T05:52:24.339Z,3096.00
2018-05-13T05:53:24.285Z,3160.00
2018-05-13T05:54:24.197Z,3228.00
2018-05-13T05:55:24.129Z,3252.00
2018-05-13T05:56:24.058Z,3288.00
2018-05-13T05:57:23.986Z,3276.00
2018-05-13T05:58:23.922Z,3304.00
2018-05-13T05:59:23.846Z,3300.00
2018-05-13T06:00:23.775Z,3248.00
2018-05-13T06:01:23.704Z,3240.00
2018-05-13T06:02:23.633Z,3256.00
2018-05-13T06:03:23.563Z,3224.00
2018-05-13T06:04:23.492Z,3244.00
2018-05-13T06:05:23.422Z,3376.00
2018-05-13T06:06:23.352Z,3360.00
2018-05-13T06:07:23.281Z,3324.00
2018-05-13T06:08:23.210Z,3308.00
2018-05-13T06:09:23.143Z,3256.00
2018-05-13T06:10:23.069Z,3180.00
2018-05-13T06:11:23.004Z,3108.00
2018-05-13T06:12:22.929Z,3064.00
2018-05-13T06:13:22.858Z,3036.00
2018-05-13T06:14:22.787Z,3000.00
2018-05-13T06:15:22.717Z,2964.00
2018-05-13T06:16:22.646Z,2932.00
2018-05-13T06:17:22.576Z,2920.00
2018-05-13T06:18:22.504Z,2868.00
2018-05-13T06:19:22.437Z,2736.00
2018-05-13T06:20:22.368Z,2556.00
2018-05-13T06:21:22.294Z,2404.00
2018-05-13T06:22:22.222Z,2276.00
2018-05-13T06:23:22.153Z,2200.00
2018-05-13T06:24:22.082Z,2192.00
2018-05-13T06:25:22.014Z,2208.00
2018-05-13T06:26:21.940Z,2256.00
2018-05-13T06:27:21.874Z,2352.00
2018-05-13T06:28:21.798Z,2368.00
2018-05-13T06:29:21.733Z,2272.00
2018-05-13T06:30:21.659Z,2188.00
2018-05-13T06:31:21.589Z,2108.00
2018-05-13T06:32:21.517Z,2064.00
2018-05-13T06:33:21.447Z,2020.00
2018-05-13T06:34:21.376Z,1988.00
2018-05-13T06:35:21.306Z,1976.00
2018-05-13T06:36:21.234Z,1960.00
2018-05-13T06:37:21.166Z,1948.00
2018-05-13T06:38:21.095Z,1952.00
2018-05-13T06:39:21.025Z,2004.00
2018-05-13T06:40:20.955Z,2044.00
2018-05-13T06:41:20.882Z,2056.00
2018-05-13T06:42:20.811Z,2044.00
2018-05-13T06:43:20.741Z,2016.00
2018-05-13T06:44:20.669Z,1976.00
2018-05-13T06:45:20.720Z,1940.00
2018-05-13T06:46:20.531Z,1920.00
2018-05-13T06:47:20.459Z,1888.00
2018-05-13T06:48:20.389Z,1832.00
2018-05-13T06:49:20.317Z,1772.00
2018-05-13T06:50:20.245Z,1732.00
2018-05-13T06:51:20.396Z,1728.00
2018-05-13T06:52:20.105Z,1748.00
2018-05-13T06:53:20.037Z,1780.00
2018-05-13T06:54:19.964Z,1792.00
2018-05-13T06:55:19.894Z,1812.00
2018-05-13T06:56:19.823Z,1872.00
2018-05-13T06:57:19.830Z,1904.00
2018-05-13T06:58:19.683Z,1948.00
2018-05-13T06:59:19.612Z,2036.00
2018-05-13T07:00:19.541Z,2176.00
2018-05-13T07:01:19.470Z,2144.00
2018-05-13T07:02:19.403Z,2236.00
2018-05-13T07:03:19.330Z,2184.00
2018-05-13T07:04:19.261Z,2152.00
2018-05-13T07:05:19.190Z,2104.00
2018-05-13T07:06:19.120Z,2084.00
2018-05-13T07:07:19.047Z,2132.00
2018-05-13T07:08:18.978Z,2200.00
2018-05-13T07:09:18.907Z,2492.00
2018-05-13T07:10:18.842Z,2972.00
2018-05-13T07:11:18.768Z,3936.00
2018-05-13T07:12:18.695Z,4800.00
2018-05-13T07:13:18.626Z,5508.00
2018-05-13T07:14:18.556Z,6012.00
2018-05-13T07:15:18.493Z,6392.00
2018-05-13T07:16:18.415Z,6536.00
2018-05-13T07:17:18.345Z,6532.00
2018-05-13T07:18:18.276Z,6252.00
2018-05-13T07:19:18.204Z,6044.00
2018-05-13T07:20:18.135Z,6008.00
2018-05-13T07:21:18.065Z,5896.00
2018-05-13T07:22:17.996Z,5992.00
2018-05-13T07:23:17.927Z,6272.00
2018-05-13T07:24:17.856Z,6152.00
2018-05-13T07:25:17.789Z,5820.00
2018-05-13T07:26:17.717Z,5512.00
2018-05-13T07:27:17.649Z,5556.00
2018-05-13T07:28:17.577Z,5412.00
2018-05-13T07:29:17.595Z,5216.00
2018-05-13T07:30:17.439Z,5412.00
2018-05-13T07:31:17.369Z,5780.00
2018-05-13T07:32:17.300Z,6244.00
2018-05-13T07:33:17.230Z,6660.00
2018-05-13T07:34:17.162Z,6708.00
2018-05-13T07:35:17.092Z,6752.00
2018-05-13T07:36:17.025Z,6928.00
2018-05-13T07:37:16.953Z,7056.00
2018-05-13T07:38:16.886Z,7108.00
2018-05-13T07:39:16.816Z,7008.00
2018-05-13T07:40:16.746Z,6964.00
2018-05-13T07:41:16.677Z,6900.00
2018-05-13T07:42:16.606Z,7040.00
2018-05-13T07:43:16.547Z,7120.00
2018-05-13T07:44:16.468Z,7008.00
2018-05-13T07:45:16.399Z,6724.00
2018-05-13T07:46:16.328Z,6532.00
2018-05-13T07:47:16.260Z,6608.00
2018-05-13T07:48:16.192Z,6728.00
2018-05-13T07:49:16.123Z,6800.00
2018-05-13T07:50:16.055Z,6836.00
2018-05-13T07:51:15.985Z,6944.00
2018-05-13T07:52:15.916Z,7232.00
2018-05-13T07:53:15.847Z,7496.00
2018-05-13T07:54:15.779Z,7268.00
2018-05-13T07:55:15.709Z,6848.00
2018-05-13T07:56:15.640Z,6920.00
2018-05-13T07:57:15.571Z,7112.00
2018-05-13T07:58:15.507Z,7276.00
2018-05-13T07:59:15.434Z,7196.00
2018-05-13T08:00:15.365Z,7188.00
2018-05-13T08:01:15.296Z,7228.00
2018-05-13T08:02:15.228Z,6956.00
2018-05-13T08:03:15.159Z,6744.00
2018-05-13T08:04:15.090Z,6524.00
2018-05-13T08:05:15.020Z,6244.00
2018-05-13T08:06:14.994Z,5632.00
2018-05-13T08:07:14.883Z,5636.00
2018-05-13T08:08:14.813Z,5972.00
2018-05-13T08:09:14.746Z,6028.00
2018-05-13T08:10:14.676Z,6264.00
2018-05-13T08:11:14.608Z,6340.00
2018-05-13T08:12:14.537Z,6572.00
2018-05-13T08:13:14.468Z,6624.00
2018-05-13T08:14:14.400Z,6840.00
2018-05-13T08:15:14.331Z,6768.00
2018-05-13T08:16:14.262Z,6324.00
2018-05-13T08:17:14.192Z,6084.00
2018-05-13T08:18:14.126Z,5968.00
2018-05-13T08:19:14.058Z,5972.00
2018-05-13T08:20:13.998Z,5900.00
2018-05-13T08:21:13.918Z,6236.00
2018-05-13T08:22:13.852Z,6616.00
2018-05-13T08:23:13.780Z,6908.00
2018-05-13T08:24:13.712Z,7276.00
2018-05-13T08:25:13.642Z,6968.00
2018-05-13T08:26:13.573Z,6804.00
2018-05-13T08:27:13.506Z,7076.00
2018-05-13T08:28:13.435Z,6908.00
2018-05-13T08:29:13.367Z,7292.00
2018-05-13T08:30:13.299Z,7820.00
2018-05-13T08:31:13.229Z,7228.00
2018-05-13T08:32:13.160Z,6700.00
2018-05-13T08:33:13.092Z,6252.00
2018-05-13T08:34:13.024Z,6088.00
2018-05-13T08:35:12.955Z,5832.00
2018-05-13T08:36:12.886Z,5796.00
2018-05-13T08:37:12.819Z,6444.00
2018-05-13T08:38:12.750Z,7260.00
2018-05-13T08:39:12.682Z,6860.00
2018-05-13T08:40:12.613Z,6000.00
2018-05-13T08:41:12.543Z,5528.00
2018-05-13T08:42:12.476Z,6336.00
2018-05-13T08:43:12.408Z,6564.00
2018-05-13T08:44:12.339Z,6160.00
2018-05-13T08:45:12.270Z,5980.00
2018-05-13T08:46:12.202Z,5564.00
2018-05-13T08:47:12.137Z,5488.00
2018-05-13T08:48:12.065Z,6144.00
2018-05-13T08:49:11.996Z,6648.00
2018-05-13T08:50:11.928Z,5144.00
2018-05-13T08:51:11.860Z,4544.00
2018-05-13T08:52:11.790Z,5264.00
2018-05-13T08:53:11.723Z,6636.00
2018-05-13T08:54:11.656Z,6540.00
2018-05-13T08:55:11.587Z,5876.00
2018-05-13T08:56:11.517Z,6580.00
2018-05-13T08:57:11.454Z,7504.00
2018-05-13T08:58:11.382Z,7056.00
2018-05-13T08:59:11.312Z,5756.00
2018-05-13T09:00:11.242Z,5436.00
2018-05-13T09:01:11.175Z,5108.00
2018-05-13T09:02:11.107Z,4800.00
2018-05-13T09:03:11.037Z,4784.00
2018-05-13T09:04:10.969Z,4628.00
2018-05-13T09:05:10.900Z,4432.00
2018-05-13T09:06:10.832Z,4152.00
2018-05-13T09:07:10.765Z,4112.00
2018-05-13T09:08:10.698Z,4204.00
2018-05-13T09:09:10.628Z,4324.00
2018-05-13T09:10:10.559Z,4432.00
2018-05-13T09:11:10.490Z,4368.00
2018-05-13T09:12:10.421Z,4396.00
2018-05-13T09:13:10.352Z,4464.00
2018-05-13T09:14:10.361Z,4724.00
2018-05-13T09:15:10.216Z,5196.00
2018-05-13T09:16:10.147Z,5348.00
2018-05-13T09:17:10.078Z,5356.00
2018-05-13T09:18:10.010Z,5576.00
2018-05-13T09:19:09.941Z,5676.00
2018-05-13T09:20:09.871Z,5500.00
2018-05-13T09:21:09.804Z,5252.00
2018-05-13T09:22:09.734Z,5596.00
2018-05-13T09:23:09.666Z,5620.00
2018-05-13T09:24:09.598Z,5516.00
2018-05-13T09:25:09.528Z,5544.00
2018-05-13T09:26:09.461Z,5564.00
2018-05-13T09:27:09.391Z,5640.00
2018-05-13T09:28:09.322Z,5760.00
2018-05-13T09:29:09.252Z,6068.00
2018-05-13T09:30:09.185Z,6400.00
2018-05-13T09:31:09.116Z,6668.00
2018-05-13T09:32:09.047Z,7192.00
2018-05-13T09:33:09.092Z,7852.00
2018-05-13T09:34:08.909Z,8300.00
2018-05-13T09:35:08.840Z,8468.00
2018-05-13T09:36:08.772Z,8768.00
2018-05-13T09:37:08.703Z,8888.00
2018-05-13T09:38:08.633Z,9120.00
2018-05-13T09:39:08.568Z,9184.00
2018-05-13T09:40:08.498Z,9360.00
2018-05-13T09:41:08.430Z,9760.00
2018-05-13T09:42:08.360Z,10088.00
2018-05-13T09:43:08.294Z,10000.00
2018-05-13T09:44:08.224Z,9956.00
2018-05-13T09:45:08.155Z,9812.00
2018-05-13T09:46:08.087Z,9840.00
2018-05-13T09:47:08.019Z,10032.00
2018-05-13T09:48:07.951Z,9812.00
2018-05-13T09:49:07.883Z,9668.00
2018-05-13T09:50:07.815Z,9760.00
2018-05-13T09:51:07.747Z,10580.00
2018-05-13T09:52:07.677Z,11124.00
2018-05-13T09:53:07.613Z,10736.00
2018-05-13T09:54:07.542Z,10584.00
2018-05-13T09:55:07.474Z,10120.00
2018-05-13T09:56:07.408Z,9640.00
2018-05-13T09:57:07.338Z,8892.00
2018-05-13T09:58:07.270Z,8584.00
2018-05-13T09:59:07.203Z,8428.00
2018-05-13T10:00:07.135Z,8424.00
2018-05-13T10:01:07.067Z,8168.00
2018-05-13T10:02:06.999Z,8072.00
2018-05-13T10:03:06.932Z,8416.00
2018-05-13T10:04:06.913Z,8424.00
2018-05-13T10:05:06.795Z,8460.00
2018-05-13T10:06:06.727Z,8888.00
2018-05-13T10:07:06.659Z,9364.00
2018-05-13T10:08:06.591Z,10628.00
2018-05-13T10:09:06.522Z,12128.00
2018-05-13T10:10:06.456Z,12468.00
2018-05-13T10:11:06.388Z,13356.00
2018-05-13T10:12:06.317Z,13984.00
2018-05-13T10:13:06.250Z,14024.00
2018-05-13T10:14:06.186Z,14532.00
2018-05-13T10:15:06.115Z,14380.00
2018-05-13T10:16:06.047Z,14164.00
2018-05-13T10:17:05.981Z,13408.00
2018-05-13T10:18:05.911Z,12464.00
2018-05-13T10:19:05.843Z,11040.00
2018-05-13T10:20:05.775Z,8996.00
2018-05-13T10:21:05.706Z,7376.00
2018-05-13T10:22:05.639Z,6404.00
2018-05-13T10:23:05.572Z,5656.00
2018-05-13T10:24:05.502Z,5320.00
2018-05-13T10:25:05.434Z,5288.00
2018-05-13T10:26:05.366Z,5536.00
2018-05-13T10:27:05.299Z,6112.00
2018-05-13T10:28:05.229Z,6672.00
2018-05-13T10:29:05.165Z,7292.00
2018-05-13T10:30:05.093Z,7148.00
2018-05-13T10:31:05.035Z,6556.00
2018-05-13T10:32:04.957Z,6424.00
2018-05-13T10:33:04.891Z,6396.00
2018-05-13T10:34:04.820Z,6540.00
2018-05-13T10:35:04.752Z,6844.00
2018-05-13T10:36:04.682Z,6508.00
2018-05-13T10:37:04.615Z,5692.00
2018-05-13T10:38:04.548Z,5200.00
2018-05-13T10:39:04.478Z,5316.00
2018-05-13T10:40:04.408Z,5220.00
2018-05-13T10:41:04.340Z,4892.00
2018-05-13T10:42:04.271Z,5248.00
2018-05-13T10:43:04.202Z,5776.00
2018-05-13T10:44:04.135Z,5608.00
2018-05-13T10:45:04.065Z,5340.00
2018-05-13T10:46:03.996Z,5308.00
2018-05-13T10:47:03.932Z,5596.00
2018-05-13T10:48:03.856Z,6060.00
2018-05-13T10:49:03.789Z,6940.00
2018-05-13T10:50:03.720Z,8024.00
2018-05-13T10:51:03.651Z,10048.00
2018-05-13T10:52:03.582Z,12836.00
2018-05-13T10:53:03.513Z,14352.00
2018-05-13T10:54:03.445Z,13948.00
2018-05-13T10:55:03.377Z,12804.00
2018-05-13T10:56:03.306Z,13724.00
2018-05-13T10:57:03.238Z,18272.00
2018-05-13T10:58:03.170Z,21312.00
2018-05-13T10:59:03.102Z,18240.00
2018-05-13T11:00:03.033Z,23008.00
2018-05-13T11:01:02.964Z,19552.00
2018-05-13T11:02:02.896Z,18208.00
2018-05-13T11:03:02.829Z,19072.00
2018-05-13T11:04:02.758Z,18304.00
2018-05-13T11:05:02.691Z,18176.00
2018-05-13T11:06:02.623Z,19328.00
2018-05-13T11:07:02.556Z,17824.00
2018-05-13T11:08:02.489Z,13668.00
2018-05-13T11:09:02.419Z,10864.00
2018-05-13T11:10:02.351Z,10260.00
2018-05-13T11:11:02.285Z,11872.00
2018-05-13T11:12:02.216Z,12180.00
2018-05-13T11:13:02.148Z,13948.00
2018-05-13T11:14:02.080Z,15088.00
2018-05-13T11:15:02.013Z,15424.00
2018-05-13T11:16:01.945Z,14132.00
2018-05-13T11:17:01.877Z,12576.00
2018-05-13T11:18:01.810Z,13096.00
2018-05-13T11:19:01.742Z,15112.00
2018-05-13T11:20:01.675Z,16832.00
2018-05-13T11:21:01.607Z,19200.00
2018-05-13T11:22:01.540Z,20224.00
2018-05-13T11:23:01.474Z,18944.00
2018-05-13T11:24:01.404Z,16224.00
2018-05-13T11:25:01.336Z,14584.00
2018-05-13T11:26:01.270Z,13908.00
2018-05-13T11:27:01.201Z,14508.00
2018-05-13T11:28:01.133Z,14976.00
2018-05-13T11:29:01.066Z,12544.00
2018-05-13T11:30:00.999Z,10260.00
2018-05-13T11:31:00.931Z,8892.00
2018-05-13T11:32:00.866Z,7892.00
2018-05-13T11:33:00.797Z,8632.00
2018-05-13T11:34:00.729Z,9052.00
2018-05-13T11:35:00.662Z,9660.00
2018-05-13T11:36:00.595Z,11572.00
2018-05-13T11:37:00.525Z,16320.00
2018-05-13T11:38:00.459Z,31968.00
2018-05-13T11:39:00.392Z,40736.00
2018-05-13T11:40:00.323Z,14592.00
2018-05-13T11:41:00.256Z,12236.00
2018-05-13T11:42:00.189Z,12124.00
2018-05-13T11:43:00.122Z,15096.00
2018-05-13T11:44:00.054Z,35200.00
2018-05-13T11:44:59.986Z,76672.00
2018-05-13T11:45:59.919Z,44224.00
2018-05-13T11:46:59.852Z,19968.00
2018-05-13T11:47:59.789Z,25376.00
2018-05-13T11:48:59.720Z,46880.00
2018-05-13T11:49:59.651Z,82240.00
2018-05-13T11:50:59.587Z,57984.00
2018-05-13T11:51:59.520Z,20640.00
2018-05-13T11:52:59.455Z,16320.00
2018-05-13T11:53:59.390Z,62784.00
2018-05-13T11:54:59.325Z,17664.00
2018-05-13T11:55:59.260Z,20576.00
2018-05-13T11:56:59.195Z,23872.00
2018-05-13T11:57:59.130Z,21504.00
2018-05-13T11:58:59.065Z,35840.00
2018-05-13T11:59:58.998Z,47968.00
2018-05-13T12:00:58.933Z,14380.00
2018-05-13T12:01:58.870Z,10376.00
2018-05-13T12:02:58.805Z,9252.00
2018-05-13T12:03:58.740Z,10192.00
2018-05-13T12:04:58.681Z,29760.00
2018-05-13T12:05:58.611Z,14684.00
2018-05-13T12:06:58.546Z,17920.00
2018-05-13T12:07:58.479Z,30240.00
2018-05-13T12:08:58.413Z,19264.00
2018-05-13T12:09:58.350Z,8092.00
2018-05-13T12:10:58.285Z,4740.00
2018-05-13T12:11:58.217Z,3492.00
2018-05-13T12:12:58.153Z,2904.00
2018-05-13T12:13:58.085Z,2752.00
2018-05-13T12:14:58.020Z,2776.00
2018-05-13T12:15:57.953Z,2952.00
2018-05-13T12:16:57.887Z,3156.00
2018-05-13T12:17:57.820Z,3024.00
2018-05-13T12:18:57.753Z,3008.00
2018-05-13T12:19:57.685Z,3032.00
2018-05-13T12:20:57.689Z,2908.00
2018-05-13T12:21:57.553Z,3040.00
2018-05-13T12:22:57.485Z,3376.00
2018-05-13T12:23:57.418Z,3576.00